Time,TemperatureF,DewpointF,PressureIn,WindDirection,WindDirectionDegrees,WindSpeedMPH,WindSpeedGustMPH,Humidity,HourlyPrecipIn,Conditions,Clouds,dailyrainin,SoftwareType,DateUTC
2013-01-02 00:00:00,14.0,-9.2,29.85,North,0,0.0,0.0,34,0.00,,CLR,0.00,VWS V13.01,2013-01-02 05:00:00,
2013-01-02 00:01:00,14.0,-9.2,29.85,North,0,0.0,0.0,34,0.00,,CLR,0.00,VWS V13.01,2013-01-02 05:01:00,
2013-01-02 00:02:00,14.0,-9.2,29.85,North,0,0.0,0.0,34,0.00,,CLR,0.00,VWS V13.01,2013-01-02 05:02:00,
2013-01-02 00:07:00,14.2,-9.0,29.82,North,0,0.0,0.0,34,0.00,,CLR,0.00,VWS V13.01,2013-01-02 05:07:00,
2013-01-02 00:12:00,14.2,-9.0,29.82,North,0,0.0,0.0,34,0.00,,CLR,0.00,VWS V13.01,2013-01-02 05:12:00,
2013-01-02 00:17:00,14.2,-9.0,29.82,North,0,0.0,0.0,34,0.00,,CLR,0.00,VWS V13.01,2013-01-02 05:17:00,
2013-01-02 00:22:00,14.2,-9.0,29.82,North,0,0.0,0.0,34,0.00,,CLR,0.00,VWS V13.01,2013-01-02 05:22:00,
2013-01-02 00:27:00,14.0,-9.2,29.82,North,0,0.0,0.0,34,0.00,,CLR,0.00,VWS V13.01,2013-01-02 05:27:00,
2013-01-02 00:32:00,13.8,-9.4,29.82,North,0,0.0,0.0,34,0.00,,CLR,0.00,VWS V13.01,2013-01-02 05:32:00,
2013-01-02 00:37:00,13.8,-9.4,29.85,North,0,0.0,0.0,34,0.00,,CLR,0.00,VWS V13.01,2013-01-02 05:37:00,
2013-01-02 00:42:00,14.0,-9.2,29.85,North,0,0.0,0.0,34,0.00,,CLR,0.00,VWS V13.01,2013-01-02 05:42:00,
2013-01-02 00:47:00,14.0,-9.2,29.85,North,0,0.0,0.0,34,0.00,,CLR,0.00,VWS V13.01,2013-01-02 05:47:00,
2013-01-02 00:52:00,13.8,-9.4,29.85,North,0,0.0,0.0,34,0.00,,CLR,0.00,VWS V13.01,2013-01-02 05:52:00,
2013-01-02 00:57:00,13.5,-9.7,29.85,North,0,0.0,0.0,34,0.00,,CLR,0.00,VWS V13.01,2013-01-02 05:57:00,
2013-01-02 01:02:00,13.3,-9.8,29.85,North,0,0.0,0.0,34,0.00,,CLR,0.00,VWS V13.01,2013-01-02 06:02:00,
2013-01-02 01:07:00,13.1,-10.0,29.85,North,0,0.0,0.0,34,0.00,,CLR,0.00,VWS V13.01,2013-01-02 06:07:00,
2013-01-02 01:12:00,12.9,-10.1,29.85,North,0,0.0,0.0,34,0.00,,CLR,0.00,VWS V13.01,2013-01-02 06:12:00,
2013-01-02 01:17:00,12.7,-10.3,29.85,North,0,0.0,0.0,34,0.00,,CLR,0.00,VWS V13.01,2013-01-02 06:17:00,
2013-01-02 01:23:00,12.6,-10.5,29.85,North,0,0.0,0.0,34,0.00,,CLR,0.00,VWS V13.01,2013-01-02 06:23:00,
2013-01-02 01:28:00,12.2,-10.8,29.85,North,0,0.0,0.0,34,0.00,,CLR,0.00,VWS V13.01,2013-01-02 06:28:00,
2013-01-02 01:33:00,12.2,-10.8,29.85,North,0,0.0,0.0,34,0.00,,CLR,0.00,VWS V13.01,2013-01-02 06:33:00,
2013-01-02 01:38:00,12.0,-11.0,29.85,North,0,0.0,0.0,34,0.00,,CLR,0.00,VWS V13.01,2013-01-02 06:38:00,
2013-01-02 01:43:00,12.0,-11.0,29.85,North,0,0.0,0.0,34,0.00,,CLR,0.00,VWS V13.01,2013-01-02 06:43:00,
2013-01-02 01:48:00,11.8,-11.1,29.85,North,0,0.0,0.0,34,0.00,,CLR,0.00,VWS V13.01,2013-01-02 06:48:00,
2013-01-02 01:53:00,11.8,-11.1,29.85,North,0,0.0,0.0,34,0.00,,CLR,0.00,VWS V13.01,2013-01-02 06:53:00,
2013-01-02 01:58:00,11.8,-11.1,29.85,North,0,0.0,0.0,34,0.00,,CLR,0.00,VWS V13.01,2013-01-02 06:58:00,
2013-01-02 02:03:00,11.5,-11.4,29.85,North,0,0.0,0.0,34,0.00,,CLR,0.00,VWS V13.01,2013-01-02 07:03:00,
2013-01-02 02:08:00,11.1,-11.8,29.85,North,0,0.0,0.0,34,0.00,,CLR,0.00,VWS V13.01,2013-01-02 07:08:00,
2013-01-02 02:13:00,11.1,-11.8,29.85,North,0,0.0,0.0,34,0.00,,CLR,0.00,VWS V13.01,2013-01-02 07:13:00,
2013-01-02 02:18:00,11.1,-11.8,29.85,North,0,0.0,0.0,34,0.00,,CLR,0.00,VWS V13.01,2013-01-02 07:18:00,
2013-01-02 02:23:00,11.3,-11.6,29.85,North,0,0.0,0.0,34,0.00,,CLR,0.00,VWS V13.01,2013-01-02 07:23:00,
2013-01-02 02:28:00,11.7,-11.3,29.85,North,0,0.0,0.0,34,0.00,,CLR,0.00,VWS V13.01,2013-01-02 07:28:00,
2013-01-02 02:33:00,11.8,-11.1,29.85,North,0,0.0,0.0,34,0.00,,CLR,0.00,VWS V13.01,2013-01-02 07:33:00,
2013-01-02 02:38:00,12.0,-11.0,29.85,North,0,0.0,0.0,34,0.00,,CLR,0.00,VWS V13.01,2013-01-02 07:38:00,
2013-01-02 02:43:00,12.0,-11.0,29.85,North,0,0.0,0.0,34,0.00,,CLR,0.00,VWS V13.01,2013-01-02 07:43:00,
2013-01-02 02:48:00,12.0,-11.0,29.85,North,0,0.0,0.0,34,0.00,,CLR,0.00,VWS V13.01,2013-01-02 07:48:00,
2013-01-02 02:53:00,12.2,-10.8,29.85,North,0,0.0,0.0,34,0.00,,CLR,0.00,VWS V13.01,2013-01-02 07:53:00,
2013-01-02 02:58:00,12.2,-10.8,29.85,North,0,0.0,0.0,34,0.00,,CLR,0.00,VWS V13.01,2013-01-02 07:58:00,
2013-01-02 03:03:00,12.4,-10.6,29.85,North,0,0.0,0.0,34,0.00,,CLR,0.00,VWS V13.01,2013-01-02 08:03:00,
2013-01-02 03:08:00,12.4,-10.6,29.85,North,0,0.0,0.0,34,0.00,,CLR,0.00,VWS V13.01,2013-01-02 08:08:00,
2013-01-02 03:13:00,12.2,-10.8,29.85,North,0,0.0,0.0,34,0.00,,CLR,0.00,VWS V13.01,2013-01-02 08:13:00,
2013-01-02 03:18:00,12.2,-10.8,29.85,North,0,0.0,0.0,34,0.00,,CLR,0.00,VWS V13.01,2013-01-02 08:18:00,
2013-01-02 03:23:00,12.6,-10.5,29.85,North,0,0.0,0.0,34,0.00,,CLR,0.00,VWS V13.01,2013-01-02 08:23:00,
2013-01-02 03:28:00,12.6,-10.5,29.85,North,0,0.0,0.0,34,0.00,,CLR,0.00,VWS V13.01,2013-01-02 08:28:00,
2013-01-02 03:33:00,11.8,-11.1,29.85,North,0,0.0,0.0,34,0.00,,CLR,0.00,VWS V13.01,2013-01-02 08:33:00,
2013-01-02 03:38:00,11.3,-11.6,29.85,North,0,0.0,0.0,34,0.00,,CLR,0.00,VWS V13.01,2013-01-02 08:38:00,
2013-01-02 03:43:00,11.1,-11.8,29.85,North,0,0.0,0.0,34,0.00,,CLR,0.00,VWS V13.01,2013-01-02 08:43:00,
2013-01-02 03:48:00,10.8,-12.1,29.85,North,0,0.0,0.0,34,0.00,,CLR,0.00,VWS V13.01,2013-01-02 08:48:00,
2013-01-02 03:54:00,10.4,-12.4,29.85,North,0,0.0,0.0,34,0.00,,CLR,0.00,VWS V13.01,2013-01-02 08:54:00,
2013-01-02 03:59:00,10.2,-12.6,29.85,North,0,0.0,0.0,34,0.00,,CLR,0.00,VWS V13.01,2013-01-02 08:59:00,
2013-01-02 04:04:00,10.2,-12.6,29.85,North,0,0.0,0.0,34,0.00,,CLR,0.00,VWS V13.01,2013-01-02 09:04:00,
2013-01-02 04:09:00,10.4,-12.4,29.85,North,0,0.0,0.0,34,0.00,,CLR,0.00,VWS V13.01,2013-01-02 09:09:00,
2013-01-02 04:14:00,10.6,-12.2,29.85,North,0,0.0,0.0,34,0.00,,CLR,0.00,VWS V13.01,2013-01-02 09:14:00,
2013-01-02 04:19:00,10.8,-12.1,29.85,North,0,0.0,0.0,34,0.00,,CLR,0.00,VWS V13.01,2013-01-02 09:19:00,
2013-01-02 04:24:00,10.9,-11.9,29.82,North,0,0.0,0.0,34,0.00,,CLR,0.00,VWS V13.01,2013-01-02 09:24:00,
2013-01-02 04:29:00,10.8,-12.1,29.82,North,0,0.0,0.0,34,0.00,,CLR,0.00,VWS V13.01,2013-01-02 09:29:00,
2013-01-02 04:34:00,10.8,-12.1,29.82,North,0,0.0,0.0,34,0.00,,CLR,0.00,VWS V13.01,2013-01-02 09:34:00,
2013-01-02 04:39:00,10.8,-12.1,29.82,North,0,0.0,0.0,34,0.00,,CLR,0.00,VWS V13.01,2013-01-02 09:39:00,
2013-01-02 04:44:00,10.8,-12.1,29.82,North,0,0.0,0.0,34,0.00,,CLR,0.00,VWS V13.01,2013-01-02 09:44:00,
2013-01-02 04:49:00,10.8,-12.1,29.82,North,0,0.0,0.0,34,0.00,,CLR,0.00,VWS V13.01,2013-01-02 09:49:00,
2013-01-02 04:54:00,10.6,-12.2,29.82,North,0,0.0,0.0,34,0.00,,CLR,0.00,VWS V13.01,2013-01-02 09:54:00,
2013-01-02 04:59:00,10.4,-12.4,29.82,North,0,0.0,0.0,34,0.00,,CLR,0.00,VWS V13.01,2013-01-02 09:59:00,
2013-01-02 05:04:00,10.4,-12.4,29.82,North,0,0.0,0.0,34,0.00,,CLR,0.00,VWS V13.01,2013-01-02 10:04:00,
2013-01-02 05:09:00,10.8,-12.1,29.82,North,0,0.0,0.0,34,0.00,,CLR,0.00,VWS V13.01,2013-01-02 10:09:00,
2013-01-02 05:14:00,10.8,-12.1,29.82,North,0,0.0,0.0,34,0.00,,CLR,0.00,VWS V13.01,2013-01-02 10:14:00,
2013-01-02 05:19:00,10.8,-12.1,29.82,North,0,0.0,0.0,34,0.00,,CLR,0.00,VWS V13.01,2013-01-02 10:19:00,
2013-01-02 05:24:00,10.4,-12.4,29.85,North,0,0.0,0.0,34,0.00,,CLR,0.00,VWS V13.01,2013-01-02 10:24:00,
2013-01-02 05:29:00,10.2,-12.6,29.85,North,0,0.0,0.0,34,0.00,,CLR,0.00,VWS V13.01,2013-01-02 10:29:00,
2013-01-02 05:34:00,10.6,-12.2,29.85,North,0,0.0,0.0,34,0.00,,CLR,0.00,VWS V13.01,2013-01-02 10:34:00,
2013-01-02 05:39:00,11.1,-11.8,29.82,North,0,0.0,0.0,34,0.00,,CLR,0.00,VWS V13.01,2013-01-02 10:39:00,
2013-01-02 05:44:00,11.7,-11.3,29.82,North,0,0.0,0.0,34,0.00,,CLR,0.00,VWS V13.01,2013-01-02 10:44:00,
2013-01-02 05:49:00,12.0,-11.0,29.82,North,0,0.0,0.0,34,0.00,,CLR,0.00,VWS V13.01,2013-01-02 10:49:00,
2013-01-02 05:54:00,12.2,-10.8,29.82,North,0,0.0,0.0,34,0.00,,CLR,0.00,VWS V13.01,2013-01-02 10:54:00,
2013-01-02 05:59:00,12.6,-10.5,29.82,North,0,0.0,0.0,34,0.00,,CLR,0.00,VWS V13.01,2013-01-02 10:59:00,
2013-01-02 06:04:00,12.6,-10.5,29.82,North,0,0.0,0.0,34,0.00,,FEW060,0.00,VWS V13.01,2013-01-02 11:04:00,
2013-01-02 06:09:00,12.7,-10.3,29.82,North,0,0.0,0.0,34,0.00,,FEW060,0.00,VWS V13.01,2013-01-02 11:09:00,
2013-01-02 06:14:00,12.7,-10.3,29.82,North,0,0.0,0.0,34,0.00,,FEW060,0.00,VWS V13.01,2013-01-02 11:14:00,
2013-01-02 06:19:00,12.7,-10.3,29.82,North,0,0.0,0.0,34,0.00,,FEW060,0.00,VWS V13.01,2013-01-02 11:19:00,
2013-01-02 06:24:00,12.7,-10.3,29.82,North,0,0.0,0.0,34,0.00,,FEW060,0.00,VWS V13.01,2013-01-02 11:24:00,
2013-01-02 06:29:00,12.9,-10.1,29.82,North,0,0.0,0.0,34,0.00,,FEW060,0.00,VWS V13.01,2013-01-02 11:29:00,
2013-01-02 06:34:00,12.9,-10.1,29.82,North,0,0.0,0.0,34,0.00,,FEW060,0.00,VWS V13.01,2013-01-02 11:34:00,
2013-01-02 06:39:00,13.1,-10.0,29.82,North,0,0.0,0.0,34,0.00,,FEW060,0.00,VWS V13.01,2013-01-02 11:39:00,
2013-01-02 06:44:00,13.3,-9.8,29.82,North,0,0.0,0.0,34,0.00,,BKN060,0.00,VWS V13.01,2013-01-02 11:44:00,
2013-01-02 06:49:00,13.6,-9.5,29.82,North,0,0.0,0.0,34,0.00,,BKN060,0.00,VWS V13.01,2013-01-02 11:49:00,
2013-01-02 06:54:00,13.8,-9.4,29.82,North,0,0.0,0.0,34,0.00,,BKN060,0.00,VWS V13.01,2013-01-02 11:54:00,
2013-01-02 06:59:00,14.0,-6.9,29.82,North,0,0.0,0.0,38,0.00,,BKN060,0.00,VWS V13.01,2013-01-02 11:59:00,
2013-01-02 07:05:00,14.4,-7.1,29.82,North,0,0.0,0.0,37,0.00,,OVC060,0.00,VWS V13.01,2013-01-02 12:05:00,
2013-01-02 07:10:00,14.4,-7.1,29.82,North,0,0.0,0.0,37,0.00,,OVC060,0.00,VWS V13.01,2013-01-02 12:10:00,
2013-01-02 07:15:00,14.5,-7.0,29.82,North,0,0.0,0.0,37,0.00,,OVC060,0.00,VWS V13.01,2013-01-02 12:15:00,
2013-01-02 07:20:00,14.5,-7.0,29.82,North,0,0.0,0.0,37,0.00,,OVC060,0.00,VWS V13.01,2013-01-02 12:20:00,
2013-01-02 07:25:00,14.7,-6.8,29.82,North,0,0.0,0.0,37,0.00,,OVC060,0.00,VWS V13.01,2013-01-02 12:25:00,
2013-01-02 07:30:00,14.9,-6.7,29.82,North,0,0.0,0.0,37,0.00,,OVC060,0.00,VWS V13.01,2013-01-02 12:30:00,
2013-01-02 07:35:00,14.9,-6.7,29.82,North,0,0.0,0.0,37,0.00,,OVC060,0.00,VWS V13.01,2013-01-02 12:35:00,
2013-01-02 07:40:00,14.9,-6.7,29.82,North,0,0.0,0.0,37,0.00,,OVC060,0.00,VWS V13.01,2013-01-02 12:40:00,
2013-01-02 07:45:00,15.1,-6.5,29.82,North,0,0.0,0.0,37,0.00,,OVC060,0.00,VWS V13.01,2013-01-02 12:45:00,
2013-01-02 07:50:00,15.3,-6.3,29.82,North,0,0.0,0.0,37,0.00,,OVC060,0.00,VWS V13.01,2013-01-02 12:50:00,
2013-01-02 07:55:00,15.3,-5.8,29.82,North,0,0.0,0.0,38,0.00,,OVC060,0.00,VWS V13.01,2013-01-02 12:55:00,
2013-01-02 08:00:00,15.4,-5.6,29.82,North,0,0.0,0.0,38,0.00,,OVC060,0.00,VWS V13.01,2013-01-02 13:00:00,
2013-01-02 08:05:00,15.8,-5.3,29.82,North,0,0.0,0.0,38,0.00,,OVC060,0.00,VWS V13.01,2013-01-02 13:05:00,
2013-01-02 08:10:00,16.0,-5.1,29.82,North,0,0.0,0.0,38,0.00,,OVC060,0.00,VWS V13.01,2013-01-02 13:10:00,
2013-01-02 08:15:00,16.5,-4.7,29.82,North,0,0.0,0.0,38,0.00,,OVC060,0.00,VWS V13.01,2013-01-02 13:15:00,
2013-01-02 08:20:00,16.7,-4.5,29.82,North,0,0.0,0.0,38,0.00,,OVC060,0.00,VWS V13.01,2013-01-02 13:20:00,
2013-01-02 08:25:00,17.1,-4.2,29.82,North,0,0.0,0.0,38,0.00,,OVC060,0.00,VWS V13.01,2013-01-02 13:25:00,
2013-01-02 08:30:00,17.2,-4.0,29.82,North,0,0.0,0.0,38,0.00,,OVC060,0.00,VWS V13.01,2013-01-02 13:30:00,
2013-01-02 08:35:00,17.4,-3.8,29.82,North,0,0.0,0.0,38,0.00,,OVC060,0.00,VWS V13.01,2013-01-02 13:35:00,
2013-01-02 08:40:00,17.4,-3.8,29.82,North,0,0.0,0.0,38,0.00,,OVC060,0.00,VWS V13.01,2013-01-02 13:40:00,
2013-01-02 08:45:00,17.4,-3.8,29.82,North,0,0.0,0.0,38,0.00,,OVC060,0.00,VWS V13.01,2013-01-02 13:45:00,
2013-01-02 08:50:00,17.6,-3.7,29.82,North,0,0.0,0.0,38,0.00,,OVC060,0.00,VWS V13.01,2013-01-02 13:50:00,
2013-01-02 08:55:00,17.6,-3.7,29.82,North,0,0.0,0.0,38,0.00,,OVC060,0.00,VWS V13.01,2013-01-02 13:55:00,
2013-01-02 09:00:00,17.8,-4.1,29.82,North,0,0.0,0.0,37,0.00,,OVC060,0.00,VWS V13.01,2013-01-02 14:00:00,
2013-01-02 09:05:00,17.8,-4.1,29.82,North,0,0.0,0.0,37,0.00,,OVC060,0.00,VWS V13.01,2013-01-02 14:05:00,
2013-01-02 09:10:00,18.3,-3.6,29.82,North,0,0.0,0.0,37,0.00,,OVC060,0.00,VWS V13.01,2013-01-02 14:10:00,
2013-01-02 09:15:00,18.7,-3.3,29.82,North,0,0.0,0.0,37,0.00,,OVC060,0.00,VWS V13.01,2013-01-02 14:15:00,
2013-01-02 09:20:00,18.7,-3.3,29.82,North,0,0.0,0.0,37,0.00,,OVC060,0.00,VWS V13.01,2013-01-02 14:20:00,
2013-01-02 09:25:00,18.7,-3.3,29.85,North,0,0.0,0.0,37,0.00,,OVC060,0.00,VWS V13.01,2013-01-02 14:25:00,
2013-01-02 09:30:00,19.0,-2.4,29.85,North,0,0.0,0.0,38,0.00,,OVC060,0.00,VWS V13.01,2013-01-02 14:30:00,
2013-01-02 09:35:00,19.2,-2.2,29.85,North,0,0.0,0.0,38,0.00,,OVC060,0.00,VWS V13.01,2013-01-02 14:35:00,
2013-01-02 09:40:00,19.4,-2.0,29.85,North,0,0.0,0.0,38,0.00,,OVC060,0.00,VWS V13.01,2013-01-02 14:40:00,
2013-01-02 09:45:00,19.8,-1.7,29.85,North,0,0.0,0.0,38,0.00,,BKN065,0.00,VWS V13.01,2013-01-02 14:45:00,
2013-01-02 09:50:00,20.1,-1.4,29.85,North,0,0.0,0.0,38,0.00,,BKN065,0.00,VWS V13.01,2013-01-02 14:50:00,
2013-01-02 09:55:00,20.3,-1.2,29.85,North,0,0.0,0.0,38,0.00,,BKN065,0.00,VWS V13.01,2013-01-02 14:55:00,
2013-01-02 10:00:00,20.7,-0.9,29.85,North,0,0.0,0.0,38,0.00,,BKN065,0.00,VWS V13.01,2013-01-02 15:00:00,
2013-01-02 10:05:00,20.8,-0.8,29.85,North,0,0.0,0.0,38,0.00,,BKN075,0.00,VWS V13.01,2013-01-02 15:05:00,
2013-01-02 10:10:00,21.0,-0.6,29.85,North,0,0.0,0.0,38,0.00,,BKN075,0.00,VWS V13.01,2013-01-02 15:10:00,
2013-01-02 10:15:00,21.2,-0.4,29.85,North,0,0.0,0.0,38,0.00,,BKN075,0.00,VWS V13.01,2013-01-02 15:15:00,
2013-01-02 10:20:00,21.2,-0.4,29.85,North,0,0.0,0.0,38,0.00,,BKN075,0.00,VWS V13.01,2013-01-02 15:20:00,
2013-01-02 10:26:00,21.6,-0.1,29.85,North,0,0.0,0.0,38,0.00,,BKN075,0.00,VWS V13.01,2013-01-02 15:26:00,
2013-01-02 10:31:00,21.9,0.2,29.85,North,0,0.0,0.0,38,0.00,,BKN075,0.00,VWS V13.01,2013-01-02 15:31:00,
2013-01-02 10:36:00,22.1,0.4,29.85,North,0,0.0,0.0,38,0.00,,BKN075,0.00,VWS V13.01,2013-01-02 15:36:00,
2013-01-02 10:41:00,22.5,0.7,29.85,North,0,0.0,0.0,38,0.00,,BKN075,0.00,VWS V13.01,2013-01-02 15:41:00,
2013-01-02 10:46:00,22.5,0.7,29.85,North,0,0.0,0.0,38,0.00,,BKN075,0.00,VWS V13.01,2013-01-02 15:46:00,
2013-01-02 10:51:00,22.6,0.9,29.85,North,0,0.0,0.0,38,0.00,,BKN075,0.00,VWS V13.01,2013-01-02 15:51:00,
2013-01-02 10:56:00,22.8,1.0,29.85,North,0,0.0,0.0,38,0.00,,BKN075,0.00,VWS V13.01,2013-01-02 15:56:00,
2013-01-02 11:01:00,23.2,0.8,29.85,North,0,0.0,0.0,37,0.00,,BKN075,0.00,VWS V13.01,2013-01-02 16:01:00,
2013-01-02 11:06:00,23.2,0.8,29.82,North,0,0.0,0.0,37,0.00,,OVC065,0.00,VWS V13.01,2013-01-02 16:06:00,
2013-01-02 11:11:00,23.5,1.1,29.82,North,0,0.0,0.0,37,0.00,,OVC065,0.00,VWS V13.01,2013-01-02 16:11:00,
2013-01-02 11:16:00,23.7,1.3,29.82,North,0,0.0,0.0,37,0.00,,OVC065,0.00,VWS V13.01,2013-01-02 16:16:00,
2013-01-02 11:21:00,24.1,1.6,29.82,North,0,0.0,0.0,37,0.00,,OVC065,0.00,VWS V13.01,2013-01-02 16:21:00,
2013-01-02 11:26:00,24.1,1.6,29.82,North,0,0.0,0.0,37,0.00,,OVC065,0.00,VWS V13.01,2013-01-02 16:26:00,
2013-01-02 11:31:00,24.3,1.8,29.82,North,0,0.0,0.0,37,0.00,,OVC065,0.00,VWS V13.01,2013-01-02 16:31:00,
2013-01-02 11:36:00,24.1,1.6,29.82,North,0,0.0,0.0,37,0.00,,OVC065,0.00,VWS V13.01,2013-01-02 16:36:00,
2013-01-02 11:41:00,24.3,1.2,29.82,North,0,0.0,0.0,36,0.00,,OVC065,0.00,VWS V13.01,2013-01-02 16:41:00,
2013-01-02 11:46:00,24.4,1.3,29.82,North,0,0.0,0.0,36,0.00,,OVC065,0.00,VWS V13.01,2013-01-02 16:46:00,
2013-01-02 11:51:00,24.6,2.1,29.82,North,0,0.0,0.0,37,0.00,,OVC065,0.00,VWS V13.01,2013-01-02 16:51:00,
2013-01-02 11:56:00,25.0,1.8,29.82,North,0,0.0,0.0,36,0.00,,OVC065,0.00,VWS V13.01,2013-01-02 16:56:00,
2013-01-02 12:01:00,25.2,2.0,29.82,North,0,0.0,0.0,36,0.00,,OVC065,0.00,VWS V13.01,2013-01-02 17:01:00,
2013-01-02 12:06:00,25.3,2.1,29.82,North,0,0.0,0.0,36,0.00,,OVC065,0.00,VWS V13.01,2013-01-02 17:06:00,
2013-01-02 12:11:00,25.3,1.5,29.82,North,0,0.0,0.0,35,0.00,,OVC065,0.00,VWS V13.01,2013-01-02 17:11:00,
2013-01-02 12:16:00,25.3,1.5,29.82,North,0,0.0,0.0,35,0.00,,OVC065,0.00,VWS V13.01,2013-01-02 17:16:00,
2013-01-02 12:21:00,25.3,1.5,29.82,North,0,0.0,0.0,35,0.00,,OVC065,0.00,VWS V13.01,2013-01-02 17:21:00,
2013-01-02 12:26:00,25.3,1.5,29.82,North,0,0.0,0.0,35,0.00,,OVC065,0.00,VWS V13.01,2013-01-02 17:26:00,
2013-01-02 12:31:00,25.3,1.5,29.82,North,0,0.0,0.0,35,0.00,,OVC065,0.00,VWS V13.01,2013-01-02 17:31:00,
2013-01-02 12:36:00,25.3,1.5,29.82,North,0,0.0,0.0,35,0.00,,OVC065,0.00,VWS V13.01,2013-01-02 17:36:00,
2013-01-02 12:41:00,25.0,1.2,29.82,North,0,0.0,0.0,35,0.00,,BKN075,0.00,VWS V13.01,2013-01-02 17:41:00,
2013-01-02 12:46:00,25.0,1.2,29.82,North,0,0.0,0.0,35,0.00,,BKN075,0.00,VWS V13.01,2013-01-02 17:46:00,
2013-01-02 12:51:00,25.0,1.2,29.82,North,0,0.0,0.0,35,0.00,,BKN075,0.00,VWS V13.01,2013-01-02 17:51:00,
2013-01-02 12:56:00,24.8,1.6,29.82,North,0,0.0,0.0,36,0.00,,BKN075,0.00,VWS V13.01,2013-01-02 17:56:00,
2013-01-02 13:01:00,25.0,1.8,29.82,North,0,0.0,0.0,36,0.00,,BKN075,0.00,VWS V13.01,2013-01-02 18:01:00,
2013-01-02 13:06:00,25.2,2.0,29.82,North,0,0.0,0.0,36,0.00,,BKN075,0.00,VWS V13.01,2013-01-02 18:06:00,
2013-01-02 13:11:00,25.2,1.4,29.82,North,0,0.0,0.0,35,0.00,,BKN075,0.00,VWS V13.01,2013-01-02 18:11:00,
2013-01-02 13:16:00,25.2,1.4,29.82,North,0,0.0,0.0,35,0.00,,BKN075,0.00,VWS V13.01,2013-01-02 18:16:00,
2013-01-02 13:21:00,25.2,1.4,29.82,North,0,0.0,0.0,35,0.00,,BKN075,0.00,VWS V13.01,2013-01-02 18:21:00,
2013-01-02 13:26:00,25.2,0.8,29.82,North,0,0.0,0.0,34,0.00,,BKN075,0.00,VWS V13.01,2013-01-02 18:26:00,
2013-01-02 13:31:00,25.2,0.8,29.82,North,0,0.0,0.0,34,0.00,,BKN075,0.00,VWS V13.01,2013-01-02 18:31:00,
2013-01-02 13:36:00,25.0,0.6,29.85,North,0,0.0,0.0,34,0.00,,BKN075,0.00,VWS V13.01,2013-01-02 18:36:00,
2013-01-02 13:41:00,25.0,0.6,29.85,North,0,0.0,0.0,34,0.00,,OVC044,0.00,VWS V13.01,2013-01-02 18:41:00,
2013-01-02 13:46:00,24.8,0.4,29.85,North,0,0.0,0.0,34,0.00,,OVC044,0.00,VWS V13.01,2013-01-02 18:46:00,
2013-01-02 13:51:00,24.6,0.3,29.85,North,0,0.0,0.0,34,0.00,,OVC044,0.00,VWS V13.01,2013-01-02 18:51:00,
2013-01-02 13:56:00,24.4,0.1,29.85,North,0,0.0,0.0,34,0.00,,OVC044,0.00,VWS V13.01,2013-01-02 18:56:00,
2013-01-02 14:01:00,24.4,-0.5,29.85,North,0,0.0,0.0,33,0.00,,OVC044,0.00,VWS V13.01,2013-01-02 19:01:00,
2013-01-02 14:06:00,24.3,-0.7,29.85,North,0,0.0,0.0,33,0.00,,OVC044,0.00,VWS V13.01,2013-01-02 19:06:00,
2013-01-02 14:11:00,24.1,-0.9,29.85,North,0,0.0,0.0,33,0.00,,OVC044,0.00,VWS V13.01,2013-01-02 19:11:00,
2013-01-02 14:16:00,24.1,-0.9,29.85,North,0,0.0,0.0,33,0.00,,OVC044,0.00,VWS V13.01,2013-01-02 19:16:00,
2013-01-02 14:21:00,23.9,-1.0,29.85,North,0,0.0,0.0,33,0.00,,OVC044,0.00,VWS V13.01,2013-01-02 19:21:00,
2013-01-02 14:26:00,23.7,-1.2,29.85,North,0,0.0,0.0,33,0.00,,OVC044,0.00,VWS V13.01,2013-01-02 19:26:00,
2013-01-02 14:31:00,23.7,-1.2,29.85,North,0,0.0,0.0,33,0.00,,OVC044,0.00,VWS V13.01,2013-01-02 19:31:00,
2013-01-02 14:36:00,23.5,-1.3,29.88,North,0,0.0,0.0,33,0.00,,OVC044,0.00,VWS V13.01,2013-01-02 19:36:00,
2013-01-02 14:41:00,23.5,-1.3,29.88,North,0,0.0,0.0,33,0.00,,OVC060,0.00,VWS V13.01,2013-01-02 19:41:00,
2013-01-02 14:46:00,23.2,-1.6,29.88,North,0,0.0,0.0,33,0.00,,OVC060,0.00,VWS V13.01,2013-01-02 19:46:00,
2013-01-02 14:51:00,23.2,-1.6,29.88,North,0,0.0,0.0,33,0.00,,OVC060,0.00,VWS V13.01,2013-01-02 19:51:00,
2013-01-02 14:56:00,23.2,-1.6,29.88,North,0,0.0,0.0,33,0.00,,OVC060,0.00,VWS V13.01,2013-01-02 19:56:00,
2013-01-02 15:01:00,23.2,-1.6,29.88,North,0,0.0,0.0,33,0.00,,OVC060,0.00,VWS V13.01,2013-01-02 20:01:00,
2013-01-02 15:06:00,23.0,-1.8,29.88,North,0,0.0,0.0,33,0.00,,OVC060,0.00,VWS V13.01,2013-01-02 20:06:00,
2013-01-02 15:11:00,23.0,-1.8,29.88,North,0,0.0,0.0,33,0.00,,OVC060,0.00,VWS V13.01,2013-01-02 20:11:00,
2013-01-02 15:16:00,23.0,-1.8,29.88,North,0,0.0,0.0,33,0.00,,OVC060,0.00,VWS V13.01,2013-01-02 20:16:00,
2013-01-02 15:21:00,23.0,-1.8,29.88,North,0,0.0,0.0,33,0.00,,OVC060,0.00,VWS V13.01,2013-01-02 20:21:00,
2013-01-02 15:26:00,23.2,-1.6,29.88,North,0,0.0,0.0,33,0.00,,OVC060,0.00,VWS V13.01,2013-01-02 20:26:00,
2013-01-02 15:32:00,23.0,-1.8,29.88,North,0,0.0,0.0,33,0.00,,OVC060,0.00,VWS V13.01,2013-01-02 20:32:00,
2013-01-02 15:37:00,23.0,-1.8,29.91,North,0,0.0,0.0,33,0.00,,OVC060,0.00,VWS V13.01,2013-01-02 20:37:00,
2013-01-02 15:42:00,22.8,-2.0,29.91,North,0,0.0,0.0,33,0.00,,OVC060,0.00,VWS V13.01,2013-01-02 20:42:00,
2013-01-02 15:47:00,22.6,-2.1,29.91,North,0,0.0,0.0,33,0.00,,OVC060,0.00,VWS V13.01,2013-01-02 20:47:00,
2013-01-02 15:52:00,22.5,-2.3,29.91,North,0,0.0,0.0,33,0.00,,OVC060,0.00,VWS V13.01,2013-01-02 20:52:00,
2013-01-02 15:57:00,22.1,-2.6,29.91,North,0,0.0,0.0,33,0.00,,OVC060,0.00,VWS V13.01,2013-01-02 20:57:00,
2013-01-02 16:02:00,21.9,-2.8,29.91,North,0,0.0,0.0,33,0.00,,OVC060,0.00,VWS V13.01,2013-01-02 21:02:00,
2013-01-02 16:07:00,21.7,-2.9,29.91,North,0,0.0,0.0,33,0.00,,OVC060,0.00,VWS V13.01,2013-01-02 21:07:00,
2013-01-02 16:12:00,21.4,-3.2,29.91,North,0,0.0,0.0,33,0.00,,OVC060,0.00,VWS V13.01,2013-01-02 21:12:00,
2013-01-02 16:17:00,21.2,-2.8,29.91,North,0,0.0,0.0,34,0.00,,OVC060,0.00,VWS V13.01,2013-01-02 21:17:00,
2013-01-02 16:22:00,20.8,-2.5,29.91,North,0,0.0,0.0,35,0.00,,OVC060,0.00,VWS V13.01,2013-01-02 21:22:00,
2013-01-02 16:27:00,20.7,-2.7,29.91,North,0,0.0,0.0,35,0.00,,OVC060,0.00,VWS V13.01,2013-01-02 21:27:00,
2013-01-02 16:32:00,20.8,-2.5,29.91,North,0,0.0,0.0,35,0.00,,OVC060,0.00,VWS V13.01,2013-01-02 21:32:00,
2013-01-02 16:37:00,20.8,-3.1,29.91,North,0,0.0,0.0,34,0.00,,OVC060,0.00,VWS V13.01,2013-01-02 21:37:00,
2013-01-02 16:42:00,20.8,-3.1,29.91,North,0,0.0,0.0,34,0.00,,CLR,0.00,VWS V13.01,2013-01-02 21:42:00,
2013-01-02 16:47:00,21.0,-2.9,29.91,North,0,0.0,0.0,34,0.00,,CLR,0.00,VWS V13.01,2013-01-02 21:47:00,
2013-01-02 16:52:00,20.8,-3.1,29.94,North,0,0.0,0.0,34,0.00,,CLR,0.00,VWS V13.01,2013-01-02 21:52:00,
2013-01-02 16:57:00,20.7,-3.3,29.94,North,0,0.0,0.0,34,0.00,,CLR,0.00,VWS V13.01,2013-01-02 21:57:00,
2013-01-02 17:02:00,20.5,-3.4,29.94,North,0,0.0,0.0,34,0.00,,CLR,0.00,VWS V13.01,2013-01-02 22:02:00,
2013-01-02 17:07:00,20.3,-3.6,29.94,North,0,0.0,0.0,34,0.00,,CLR,0.00,VWS V13.01,2013-01-02 22:07:00,
2013-01-02 17:12:00,19.6,-4.2,29.94,North,0,0.0,0.0,34,0.00,,CLR,0.00,VWS V13.01,2013-01-02 22:12:00,
2013-01-02 17:17:00,18.9,-4.9,29.94,North,0,0.0,0.0,34,0.00,,CLR,0.00,VWS V13.01,2013-01-02 22:17:00,
2013-01-02 17:22:00,18.1,-4.9,29.94,North,0,0.0,0.0,35,0.00,,CLR,0.00,VWS V13.01,2013-01-02 22:22:00,
2013-01-02 17:27:00,17.4,-5.5,29.94,North,0,0.0,0.0,35,0.00,,CLR,0.00,VWS V13.01,2013-01-02 22:27:00,
2013-01-02 17:32:00,17.1,-5.9,29.94,North,0,0.0,0.0,35,0.00,,CLR,0.00,VWS V13.01,2013-01-02 22:32:00,
2013-01-02 17:37:00,16.7,-6.2,29.94,North,0,0.0,0.0,35,0.00,,CLR,0.00,VWS V13.01,2013-01-02 22:37:00,
2013-01-02 17:42:00,16.5,-5.8,29.94,North,0,0.0,0.0,36,0.00,,CLR,0.00,VWS V13.01,2013-01-02 22:42:00,
2013-01-02 17:47:00,16.2,-6.1,29.94,North,0,0.0,0.0,36,0.00,,CLR,0.00,VWS V13.01,2013-01-02 22:47:00,
2013-01-02 17:52:00,16.0,-6.2,29.94,North,0,0.0,0.0,36,0.00,,CLR,0.00,VWS V13.01,2013-01-02 22:52:00,
2013-01-02 17:57:00,15.8,-5.8,29.94,North,0,0.0,0.0,37,0.00,,CLR,0.00,VWS V13.01,2013-01-02 22:57:00,
2013-01-02 18:02:00,15.6,-6.0,29.94,North,0,0.0,0.0,37,0.00,,CLR,0.00,VWS V13.01,2013-01-02 23:02:00,
2013-01-02 18:07:00,15.4,-5.6,29.94,North,0,0.0,0.0,38,0.00,,CLR,0.00,VWS V13.01,2013-01-02 23:07:00,
2013-01-02 18:12:00,15.3,-5.8,29.94,North,0,0.0,0.0,38,0.00,,CLR,0.00,VWS V13.01,2013-01-02 23:12:00,
2013-01-02 18:17:00,15.1,-5.9,29.94,North,0,0.0,0.0,38,0.00,,CLR,0.00,VWS V13.01,2013-01-02 23:17:00,
2013-01-02 18:22:00,14.7,-6.3,29.97,North,0,0.0,0.0,38,0.00,,CLR,0.00,VWS V13.01,2013-01-02 23:22:00,
2013-01-02 18:27:00,14.5,-5.9,29.97,North,0,0.0,0.0,39,0.00,,CLR,0.00,VWS V13.01,2013-01-02 23:27:00,
2013-01-02 18:32:00,14.4,-6.1,29.97,North,0,0.0,0.0,39,0.00,,CLR,0.00,VWS V13.01,2013-01-02 23:32:00,
2013-01-02 18:37:00,14.0,-6.4,29.97,North,0,0.0,0.0,39,0.00,,CLR,0.00,VWS V13.01,2013-01-02 23:37:00,
2013-01-02 18:42:00,13.6,-6.7,29.97,North,0,0.0,0.0,39,0.00,,CLR,0.00,VWS V13.01,2013-01-02 23:42:00,
2013-01-02 18:47:00,13.5,-6.9,29.97,North,0,0.0,0.0,39,0.00,,CLR,0.00,VWS V13.01,2013-01-02 23:47:00,
2013-01-02 18:52:00,13.3,-7.0,29.97,North,0,0.0,0.0,39,0.00,,CLR,0.00,VWS V13.01,2013-01-02 23:52:00,
2013-01-02 18:57:00,12.7,-7.5,29.97,North,0,0.0,0.0,39,0.00,,CLR,0.00,VWS V13.01,2013-01-02 23:57:00,
2013-01-02 19:02:00,12.6,-7.7,29.97,North,0,0.0,0.0,39,0.00,,CLR,0.00,VWS V13.01,2013-01-03 00:02:00,
2013-01-02 19:07:00,12.0,-8.2,29.97,North,0,0.0,0.0,39,0.00,,CLR,0.00,VWS V13.01,2013-01-03 00:07:00,
2013-01-02 19:12:00,11.8,-8.3,29.97,North,0,0.0,0.0,39,0.00,,CLR,0.00,VWS V13.01,2013-01-03 00:12:00,
2013-01-02 19:17:00,11.5,-8.7,29.97,North,0,0.0,0.0,39,0.00,,CLR,0.00,VWS V13.01,2013-01-03 00:17:00,
2013-01-02 19:22:00,11.3,-8.8,30.00,North,0,0.0,0.0,39,0.00,,CLR,0.00,VWS V13.01,2013-01-03 00:22:00,
2013-01-02 19:27:00,10.9,-9.1,30.00,North,0,0.0,0.0,39,0.00,,CLR,0.00,VWS V13.01,2013-01-03 00:27:00,
2013-01-02 19:33:00,10.8,-9.3,30.00,North,0,0.0,0.0,39,0.00,,CLR,0.00,VWS V13.01,2013-01-03 00:33:00,
2013-01-02 19:38:00,10.8,-9.3,30.00,North,0,0.0,0.0,39,0.00,,CLR,0.00,VWS V13.01,2013-01-03 00:38:00,
2013-01-02 19:43:00,10.8,-9.3,30.00,North,0,0.0,0.0,39,0.00,,CLR,0.00,VWS V13.01,2013-01-03 00:43:00,
2013-01-02 19:48:00,10.4,-9.6,30.00,North,0,0.0,0.0,39,0.00,,CLR,0.00,VWS V13.01,2013-01-03 00:48:00,
2013-01-02 19:53:00,10.4,-9.6,30.00,North,0,0.0,0.0,39,0.00,,CLR,0.00,VWS V13.01,2013-01-03 00:53:00,
2013-01-02 19:58:00,10.0,-10.0,30.00,North,0,0.0,0.0,39,0.00,,CLR,0.00,VWS V13.01,2013-01-03 00:58:00,
2013-01-02 20:03:00,9.7,-10.3,30.00,North,0,0.0,0.0,39,0.00,,CLR,0.00,VWS V13.01,2013-01-03 01:03:00,
2013-01-02 20:08:00,9.3,-10.6,30.00,North,0,0.0,0.0,39,0.00,,CLR,0.00,VWS V13.01,2013-01-03 01:08:00,
2013-01-02 20:13:00,9.0,-10.9,30.00,North,0,0.0,0.0,39,0.00,,CLR,0.00,VWS V13.01,2013-01-03 01:13:00,
2013-01-02 20:18:00,9.0,-10.9,30.00,North,0,0.0,0.0,39,0.00,,CLR,0.00,VWS V13.01,2013-01-03 01:18:00,
2013-01-02 20:23:00,9.1,-10.8,30.00,North,0,0.0,0.0,39,0.00,,CLR,0.00,VWS V13.01,2013-01-03 01:23:00,
2013-01-02 20:28:00,9.1,-10.8,30.00,North,0,0.0,0.0,39,0.00,,CLR,0.00,VWS V13.01,2013-01-03 01:28:00,
2013-01-02 20:33:00,9.1,-10.8,30.00,North,0,0.0,0.0,39,0.00,,CLR,0.00,VWS V13.01,2013-01-03 01:33:00,
2013-01-02 20:38:00,9.0,-10.9,30.00,North,0,0.0,0.0,39,0.00,,CLR,0.00,VWS V13.01,2013-01-03 01:38:00,
2013-01-02 20:43:00,9.1,-10.8,30.00,North,0,0.0,0.0,39,0.00,,CLR,0.00,VWS V13.01,2013-01-03 01:43:00,
2013-01-02 20:48:00,9.1,-10.8,30.00,North,0,0.0,0.0,39,0.00,,CLR,0.00,VWS V13.01,2013-01-03 01:48:00,
2013-01-02 20:53:00,9.3,-10.6,30.03,North,0,0.0,0.0,39,0.00,,CLR,0.00,VWS V13.01,2013-01-03 01:53:00,
2013-01-02 20:58:00,9.1,-10.8,30.03,North,0,0.0,0.0,39,0.00,,CLR,0.00,VWS V13.01,2013-01-03 01:58:00,
2013-01-02 21:03:00,8.6,-11.3,30.03,North,0,0.0,0.0,39,0.00,,CLR,0.00,VWS V13.01,2013-01-03 02:03:00,
2013-01-02 21:08:00,8.1,-11.8,30.03,North,0,0.0,0.0,39,0.00,,CLR,0.00,VWS V13.01,2013-01-03 02:08:00,
2013-01-02 21:13:00,7.9,-11.9,30.03,North,0,0.0,0.0,39,0.00,,CLR,0.00,VWS V13.01,2013-01-03 02:13:00,
2013-01-02 21:18:00,7.5,-12.2,30.03,North,0,0.0,0.0,39,0.00,,CLR,0.00,VWS V13.01,2013-01-03 02:18:00,
2013-01-02 21:24:00,7.3,-12.4,30.03,North,0,0.0,0.0,39,0.00,,CLR,0.00,VWS V13.01,2013-01-03 02:24:00,
2013-01-02 21:29:00,7.0,-12.7,30.03,North,0,0.0,0.0,39,0.00,,CLR,0.00,VWS V13.01,2013-01-03 02:29:00,
2013-01-02 21:34:00,6.8,-12.9,30.03,North,0,0.0,0.0,39,0.00,,CLR,0.00,VWS V13.01,2013-01-03 02:34:00,
2013-01-02 21:39:00,6.8,-12.9,30.06,North,0,0.0,0.0,39,0.00,,CLR,0.00,VWS V13.01,2013-01-03 02:39:00,
2013-01-02 21:44:00,6.6,-13.1,30.06,North,0,0.0,0.0,39,0.00,,CLR,0.00,VWS V13.01,2013-01-03 02:44:00,
2013-01-02 21:49:00,6.3,-13.4,30.06,North,0,0.0,0.0,39,0.00,,CLR,0.00,VWS V13.01,2013-01-03 02:49:00,
2013-01-02 21:54:00,5.7,-13.9,30.06,North,0,0.0,0.0,39,0.00,,CLR,0.00,VWS V13.01,2013-01-03 02:54:00,
2013-01-02 21:59:00,5.2,-14.4,30.06,North,0,0.0,0.0,39,0.00,,CLR,0.00,VWS V13.01,2013-01-03 02:59:00,
2013-01-02 22:04:00,4.8,-14.7,30.06,North,0,0.0,0.0,39,0.00,,CLR,0.00,VWS V13.01,2013-01-03 03:04:00,
2013-01-02 22:09:00,4.5,-15.0,30.06,North,0,0.0,0.0,39,0.00,,CLR,0.00,VWS V13.01,2013-01-03 03:09:00,
2013-01-02 22:14:00,4.1,-15.4,30.06,North,0,0.0,0.0,39,0.00,,CLR,0.00,VWS V13.01,2013-01-03 03:14:00,
2013-01-02 22:19:00,3.7,-15.7,30.06,North,0,0.0,0.0,39,0.00,,CLR,0.00,VWS V13.01,2013-01-03 03:19:00,
2013-01-02 22:24:00,3.4,-16.0,30.06,North,0,0.0,0.0,39,0.00,,CLR,0.00,VWS V13.01,2013-01-03 03:24:00,
2013-01-02 22:29:00,3.4,-16.0,30.06,North,0,0.0,0.0,39,0.00,,CLR,0.00,VWS V13.01,2013-01-03 03:29:00,
2013-01-02 22:37:00,3.2,-16.2,30.06,North,0,0.0,0.0,39,0.00,,CLR,0.00,VWS V13.01,2013-01-03 03:37:00,
2013-01-02 22:42:00,2.8,-16.5,30.06,North,0,0.0,0.0,39,0.00,,CLR,0.00,VWS V13.01,2013-01-03 03:42:00,
2013-01-02 22:47:00,2.8,-16.5,30.06,North,0,0.0,0.0,39,0.00,,CLR,0.00,VWS V13.01,2013-01-03 03:47:00,
2013-01-02 22:52:00,2.7,-16.6,30.06,North,0,0.0,0.0,39,0.00,,CLR,0.00,VWS V13.01,2013-01-03 03:52:00,
2013-01-02 22:57:00,2.7,-16.6,30.06,North,0,0.0,0.0,39,0.00,,CLR,0.00,VWS V13.01,2013-01-03 03:57:00,
2013-01-02 23:02:00,2.7,-16.6,30.06,North,0,0.0,0.0,39,0.00,,CLR,0.00,VWS V13.01,2013-01-03 04:02:00,
2013-01-02 23:07:00,2.5,-16.8,30.06,North,0,0.0,0.0,39,0.00,,CLR,0.00,VWS V13.01,2013-01-03 04:07:00,
2013-01-02 23:12:00,2.3,-17.0,30.06,North,0,0.0,0.0,39,0.00,,CLR,0.00,VWS V13.01,2013-01-03 04:12:00,
2013-01-02 23:17:00,2.1,-17.1,30.06,North,0,0.0,0.0,39,0.00,,CLR,0.00,VWS V13.01,2013-01-03 04:17:00,
2013-01-02 23:22:00,2.1,-17.1,30.06,North,0,0.0,0.0,39,0.00,,CLR,0.00,VWS V13.01,2013-01-03 04:22:00,
2013-01-02 23:27:00,1.9,-17.3,30.06,North,0,0.0,0.0,39,0.00,,CLR,0.00,VWS V13.01,2013-01-03 04:27:00,
2013-01-02 23:32:00,1.9,-17.3,30.06,North,0,0.0,0.0,39,0.00,,CLR,0.00,VWS V13.01,2013-01-03 04:32:00,
2013-01-02 23:37:00,1.8,-17.5,30.06,North,0,0.0,0.0,39,0.00,,CLR,0.00,VWS V13.01,2013-01-03 04:37:00,
2013-01-02 23:42:00,1.8,-17.5,30.06,North,0,0.0,0.0,39,0.00,,CLR,0.00,VWS V13.01,2013-01-03 04:42:00,
2013-01-02 23:47:00,1.6,-17.6,30.06,North,0,0.0,0.0,39,0.00,,CLR,0.00,VWS V13.01,2013-01-03 04:47:00,
2013-01-02 23:52:00,1.4,-17.8,30.06,North,0,0.0,0.0,39,0.00,,CLR,0.00,VWS V13.01,2013-01-03 04:52:00,
2013-01-02 23:57:00,1.4,-17.8,30.06,North,0,0.0,0.0,39,0.00,,CLR,0.00,VWS V13.01,2013-01-03 04:57:00,